sensor_id;sensor_type;location;lat;lon;timestamp;temperature;humidity
71173;DHT22;58875;51.996;4.504;2023-10-13T00:02:00;18.10;87.47
71173;DHT22;58875;51.996;4.504;2023-10-13T00:04:27;17.99;87.36
71173;DHT22;58875;51.996;4.504;2023-10-13T00:06:53;17.94;87.50
71173;DHT22;58875;51.996;4.504;2023-10-13T00:09:22;17.93;87.93
71173;DHT22;58875;51.996;4.504;2023-10-13T00:11:51;17.97;87.83
71173;DHT22;58875;51.996;4.504;2023-10-13T00:14:18;17.90;88.02
71173;DHT22;58875;51.996;4.504;2023-10-13T00:16:46;17.96;87.93
71173;DHT22;58875;51.996;4.504;2023-10-13T00:19:28;17.96;87.95
71173;DHT22;58875;51.996;4.504;2023-10-13T00:21:54;17.93;88.16
71173;DHT22;58875;51.996;4.504;2023-10-13T00:24:21;17.93;87.90
71173;DHT22;58875;51.996;4.504;2023-10-13T00:26:48;17.87;88.17
71173;DHT22;58875;51.996;4.504;2023-10-13T00:29:14;17.90;88.23
71173;DHT22;58875;51.996;4.504;2023-10-13T00:31:44;17.93;88.09
71173;DHT22;58875;51.996;4.504;2023-10-13T00:34:13;18.02;88.18
71173;DHT22;58875;51.996;4.504;2023-10-13T00:36:53;17.99;87.86
71173;DHT22;58875;51.996;4.504;2023-10-13T00:39:37;17.96;87.86
71173;DHT22;58875;51.996;4.504;2023-10-13T00:42:10;18.00;87.93
71173;DHT22;58875;51.996;4.504;2023-10-13T00:44:45;17.93;87.91
71173;DHT22;58875;51.996;4.504;2023-10-13T00:47:18;17.93;88.02
71173;DHT22;58875;51.996;4.504;2023-10-13T00:50:04;17.92;87.87
71173;DHT22;58875;51.996;4.504;2023-10-13T00:52:30;17.90;87.95
71173;DHT22;58875;51.996;4.504;2023-10-13T00:54:59;17.96;88.12
71173;DHT22;58875;51.996;4.504;2023-10-13T00:57:25;17.96;87.71
71173;DHT22;58875;51.996;4.504;2023-10-13T00:59:56;18.02;87.81
71173;DHT22;58875;51.996;4.504;2023-10-13T01:02:37;17.94;87.61
71173;DHT22;58875;51.996;4.504;2023-10-13T01:05:06;17.99;87.53
71173;DHT22;58875;51.996;4.504;2023-10-13T01:07:37;17.87;87.66
71173;DHT22;58875;51.996;4.504;2023-10-13T01:10:04;17.90;87.78
71173;DHT22;58875;51.996;4.504;2023-10-13T01:12:30;17.93;87.57
71173;DHT22;58875;51.996;4.504;2023-10-13T01:14:58;17.97;87.63
71173;DHT22;58875;51.996;4.504;2023-10-13T01:17:25;18.00;87.49
71173;DHT22;58875;51.996;4.504;2023-10-13T01:19:54;18.04;87.35
71173;DHT22;58875;51.996;4.504;2023-10-13T01:22:24;18.02;87.17
71173;DHT22;58875;51.996;4.504;2023-10-13T01:24:49;17.93;87.50
71173;DHT22;58875;51.996;4.504;2023-10-13T01:27:16;17.93;87.45
71173;DHT22;58875;51.996;4.504;2023-10-13T01:29:43;17.96;87.35
71173;DHT22;58875;51.996;4.504;2023-10-13T01:32:15;17.94;87.24
71173;DHT22;58875;51.996;4.504;2023-10-13T01:34:41;17.92;87.21
71173;DHT22;58875;51.996;4.504;2023-10-13T01:37:11;17.92;87.36
71173;DHT22;58875;51.996;4.504;2023-10-13T01:39:37;17.92;87.26
71173;DHT22;58875;51.996;4.504;2023-10-13T01:42:02;17.89;87.29
71173;DHT22;58875;51.996;4.504;2023-10-13T01:44:29;17.93;87.47
71173;DHT22;58875;51.996;4.504;2023-10-13T01:46:57;17.94;87.23
71173;DHT22;58875;51.996;4.504;2023-10-13T01:49:32;18.00;87.15
71173;DHT22;58875;51.996;4.504;2023-10-13T01:52:06;17.97;87.15
71173;DHT22;58875;51.996;4.504;2023-10-13T01:54:32;17.94;87.05
71173;DHT22;58875;51.996;4.504;2023-10-13T01:56:58;17.94;87.27
71173;DHT22;58875;51.996;4.504;2023-10-13T01:59:25;17.99;87.11
71173;DHT22;58875;51.996;4.504;2023-10-13T02:01:52;17.93;87.06
71173;DHT22;58875;51.996;4.504;2023-10-13T02:04:21;17.93;87.17
71173;DHT22;58875;51.996;4.504;2023-10-13T02:06:46;17.92;86.94
71173;DHT22;58875;51.996;4.504;2023-10-13T02:09:12;17.93;86.89
71173;DHT22;58875;51.996;4.504;2023-10-13T02:11:54;17.96;87.08
71173;DHT22;58875;51.996;4.504;2023-10-13T02:14:21;17.92;87.12
71173;DHT22;58875;51.996;4.504;2023-10-13T02:16:51;17.97;86.76
71173;DHT22;58875;51.996;4.504;2023-10-13T02:19:21;17.93;86.97
71173;DHT22;58875;51.996;4.504;2023-10-13T02:21:47;17.90;86.92
71173;DHT22;58875;51.996;4.504;2023-10-13T02:24:24;17.99;87.09
71173;DHT22;58875;51.996;4.504;2023-10-13T02:26:56;18.07;86.81
71173;DHT22;58875;51.996;4.504;2023-10-13T02:29:28;17.99;87.00
71173;DHT22;58875;51.996;4.504;2023-10-13T02:31:53;18.02;86.86
71173;DHT22;58875;51.996;4.504;2023-10-13T02:34:23;18.02;86.70
71173;DHT22;58875;51.996;4.504;2023-10-13T02:36:49;17.96;86.79
71173;DHT22;58875;51.996;4.504;2023-10-13T02:39:16;17.99;86.84
71173;DHT22;58875;51.996;4.504;2023-10-13T02:41:42;17.96;86.92
71173;DHT22;58875;51.996;4.504;2023-10-13T02:44:14;18.03;86.89
71173;DHT22;58875;51.996;4.504;2023-10-13T02:46:55;17.94;87.16
71173;DHT22;58875;51.996;4.504;2023-10-13T02:49:27;17.94;87.34
71173;DHT22;58875;51.996;4.504;2023-10-13T02:51:59;17.97;86.98
71173;DHT22;58875;51.996;4.504;2023-10-13T02:54:30;17.99;86.92
71173;DHT22;58875;51.996;4.504;2023-10-13T02:56:57;17.92;86.77
71173;DHT22;58875;51.996;4.504;2023-10-13T02:59:27;17.92;86.99
71173;DHT22;58875;51.996;4.504;2023-10-13T03:02:07;17.87;87.13
71173;DHT22;58875;51.996;4.504;2023-10-13T03:04:55;17.87;87.21
71173;DHT22;58875;51.996;4.504;2023-10-13T03:07:35;17.87;87.30
71173;DHT22;58875;51.996;4.504;2023-10-13T03:10:03;17.87;87.50
71173;DHT22;58875;51.996;4.504;2023-10-13T03:12:39;17.86;87.34
71173;DHT22;58875;51.996;4.504;2023-10-13T03:15:06;17.85;87.47
71173;DHT22;58875;51.996;4.504;2023-10-13T03:17:46;17.87;87.32
71173;DHT22;58875;51.996;4.504;2023-10-13T03:20:13;17.81;87.21
71173;DHT22;58875;51.996;4.504;2023-10-13T03:22:39;17.82;87.40
71173;DHT22;58875;51.996;4.504;2023-10-13T03:25:05;17.78;87.44
71173;DHT22;58875;51.996;4.504;2023-10-13T03:27:32;17.81;87.37
71173;DHT22;58875;51.996;4.504;2023-10-13T03:30:24;17.72;87.20
71173;DHT22;58875;51.996;4.504;2023-10-13T03:33:00;17.69;87.22
71173;DHT22;58875;51.996;4.504;2023-10-13T03:35:26;17.65;86.89
71173;DHT22;58875;51.996;4.504;2023-10-13T03:38:03;17.62;86.92
71173;DHT22;58875;51.996;4.504;2023-10-13T03:40:29;17.58;87.10
71173;DHT22;58875;51.996;4.504;2023-10-13T03:42:56;17.55;87.44
71173;DHT22;58875;51.996;4.504;2023-10-13T03:45:37;17.52;87.70
71173;DHT22;58875;51.996;4.504;2023-10-13T03:48:06;17.55;87.65
71173;DHT22;58875;51.996;4.504;2023-10-13T03:50:43;17.56;87.69
71173;DHT22;58875;51.996;4.504;2023-10-13T03:53:14;17.58;87.82
71173;DHT22;58875;51.996;4.504;2023-10-13T03:55:40;17.62;87.93
71173;DHT22;58875;51.996;4.504;2023-10-13T03:58:14;17.59;87.72
71173;DHT22;58875;51.996;4.504;2023-10-13T04:00:39;17.63;87.79
71173;DHT22;58875;51.996;4.504;2023-10-13T04:03:08;17.61;87.93
71173;DHT22;58875;51.996;4.504;2023-10-13T04:05:41;17.59;88.20
71173;DHT22;58875;51.996;4.504;2023-10-13T04:08:26;17.59;88.13
71173;DHT22;58875;51.996;4.504;2023-10-13T04:10:53;17.62;88.55
71173;DHT22;58875;51.996;4.504;2023-10-13T04:13:19;17.68;88.32
71173;DHT22;58875;51.996;4.504;2023-10-13T04:16:23;17.66;88.42
71173;DHT22;58875;51.996;4.504;2023-10-13T04:18:49;17.65;88.68
71173;DHT22;58875;51.996;4.504;2023-10-13T04:21:22;17.72;88.69
71173;DHT22;58875;51.996;4.504;2023-10-13T04:24:12;17.78;88.57
71173;DHT22;58875;51.996;4.504;2023-10-13T04:26:44;17.78;88.61
71173;DHT22;58875;51.996;4.504;2023-10-13T04:29:29;17.83;88.79
71173;DHT22;58875;51.996;4.504;2023-10-13T04:32:16;17.85;88.81
71173;DHT22;58875;51.996;4.504;2023-10-13T04:35:02;17.86;88.67
71173;DHT22;58875;51.996;4.504;2023-10-13T04:37:36;17.87;88.96
71173;DHT22;58875;51.996;4.504;2023-10-13T04:40:17;17.85;88.98
71173;DHT22;58875;51.996;4.504;2023-10-13T04:42:46;17.86;89.04
71173;DHT22;58875;51.996;4.504;2023-10-13T04:45:21;17.93;89.05
71173;DHT22;58875;51.996;4.504;2023-10-13T04:48:04;17.96;88.91
71173;DHT22;58875;51.996;4.504;2023-10-13T04:50:45;17.96;88.88
71173;DHT22;58875;51.996;4.504;2023-10-13T04:53:15;17.96;88.90
71173;DHT22;58875;51.996;4.504;2023-10-13T04:56:01;18.00;88.82
71173;DHT22;58875;51.996;4.504;2023-10-13T04:58:30;18.00;88.63
71173;DHT22;58875;51.996;4.504;2023-10-13T05:01:05;17.96;88.39
71173;DHT22;58875;51.996;4.504;2023-10-13T05:03:49;17.94;88.16
71173;DHT22;58875;51.996;4.504;2023-10-13T05:06:33;17.87;87.62
71173;DHT22;58875;51.996;4.504;2023-10-13T05:09:12;17.81;87.50
71173;DHT22;58875;51.996;4.504;2023-10-13T05:11:57;17.71;87.06
71173;DHT22;58875;51.996;4.504;2023-10-13T05:14:41;17.71;86.87
71173;DHT22;58875;51.996;4.504;2023-10-13T05:17:25;17.66;86.66
71173;DHT22;58875;51.996;4.504;2023-10-13T05:20:09;17.53;85.72
71173;DHT22;58875;51.996;4.504;2023-10-13T05:22:53;17.51;85.84
71173;DHT22;58875;51.996;4.504;2023-10-13T05:25:38;17.55;86.01
71173;DHT22;58875;51.996;4.504;2023-10-13T05:28:23;17.55;86.05
71173;DHT22;58875;51.996;4.504;2023-10-13T05:31:08;17.58;85.97
71173;DHT22;58875;51.996;4.504;2023-10-13T05:33:53;17.58;85.70
71173;DHT22;58875;51.996;4.504;2023-10-13T05:36:37;17.68;86.16
71173;DHT22;58875;51.996;4.504;2023-10-13T05:39:21;17.73;85.81
71173;DHT22;58875;51.996;4.504;2023-10-13T05:42:05;17.75;85.89
71173;DHT22;58875;51.996;4.504;2023-10-13T05:44:49;17.78;85.79
71173;DHT22;58875;51.996;4.504;2023-10-13T05:47:33;17.83;85.61
71173;DHT22;58875;51.996;4.504;2023-10-13T05:50:11;17.89;85.85
71173;DHT22;58875;51.996;4.504;2023-10-13T05:52:43;17.87;85.60
71173;DHT22;58875;51.996;4.504;2023-10-13T05:55:27;17.93;85.48
71173;DHT22;58875;51.996;4.504;2023-10-13T05:58:12;17.93;85.51
71173;DHT22;58875;51.996;4.504;2023-10-13T06:00:57;17.94;85.61
71173;DHT22;58875;51.996;4.504;2023-10-13T06:03:41;17.96;85.82
71173;DHT22;58875;51.996;4.504;2023-10-13T06:06:26;18.02;85.80
71173;DHT22;58875;51.996;4.504;2023-10-13T06:09:10;18.04;86.06
71173;DHT22;58875;51.996;4.504;2023-10-13T06:11:54;18.12;86.24
71173;DHT22;58875;51.996;4.504;2023-10-13T06:14:38;18.16;86.09
71173;DHT22;58875;51.996;4.504;2023-10-13T06:17:22;18.17;86.37
71173;DHT22;58875;51.996;4.504;2023-10-13T06:20:07;18.20;86.76
71173;DHT22;58875;51.996;4.504;2023-10-13T06:22:51;18.20;86.96
71173;DHT22;58875;51.996;4.504;2023-10-13T06:25:36;18.30;86.98
71173;DHT22;58875;51.996;4.504;2023-10-13T06:28:20;18.34;86.68
71173;DHT22;58875;51.996;4.504;2023-10-13T06:31:05;18.34;86.78
71173;DHT22;58875;51.996;4.504;2023-10-13T06:33:34;18.36;87.03
71173;DHT22;58875;51.996;4.504;2023-10-13T06:36:03;18.34;87.21
71173;DHT22;58875;51.996;4.504;2023-10-13T06:38:35;18.40;87.24
71173;DHT22;58875;51.996;4.504;2023-10-13T06:41:07;18.40;87.26
71173;DHT22;58875;51.996;4.504;2023-10-13T06:43:34;18.43;87.14
71173;DHT22;58875;51.996;4.504;2023-10-13T06:46:09;18.50;87.13
71173;DHT22;58875;51.996;4.504;2023-10-13T06:48:40;18.47;87.26
71173;DHT22;58875;51.996;4.504;2023-10-13T06:51:07;18.50;87.08
71173;DHT22;58875;51.996;4.504;2023-10-13T06:53:58;18.45;87.19
71173;DHT22;58875;51.996;4.504;2023-10-13T06:56:25;18.47;87.10
71173;DHT22;58875;51.996;4.504;2023-10-13T06:58:55;18.53;86.92
71173;DHT22;58875;51.996;4.504;2023-10-13T07:01:27;18.53;86.73
71173;DHT22;58875;51.996;4.504;2023-10-13T07:03:53;18.60;86.59
71173;DHT22;58875;51.996;4.504;2023-10-13T07:06:22;18.67;86.58
71173;DHT22;58875;51.996;4.504;2023-10-13T07:08:50;18.65;86.49
71173;DHT22;58875;51.996;4.504;2023-10-13T07:11:24;18.74;86.51
71173;DHT22;58875;51.996;4.504;2023-10-13T07:14:03;18.71;86.03
71173;DHT22;58875;51.996;4.504;2023-10-13T07:16:56;18.72;86.29
71173;DHT22;58875;51.996;4.504;2023-10-13T07:19:29;18.79;86.02
71173;DHT22;58875;51.996;4.504;2023-10-13T07:21:55;18.81;85.76
71173;DHT22;58875;51.996;4.504;2023-10-13T07:24:27;18.81;85.82
71173;DHT22;58875;51.996;4.504;2023-10-13T07:26:58;18.84;85.73
71173;DHT22;58875;51.996;4.504;2023-10-13T07:29:28;18.87;85.39
71173;DHT22;58875;51.996;4.504;2023-10-13T07:31:54;18.88;85.30
71173;DHT22;58875;51.996;4.504;2023-10-13T07:34:20;18.91;85.02
71173;DHT22;58875;51.996;4.504;2023-10-13T07:36:58;18.95;84.83
71173;DHT22;58875;51.996;4.504;2023-10-13T07:39:30;19.02;84.37
71173;DHT22;58875;51.996;4.504;2023-10-13T07:42:00;19.05;83.42
71173;DHT22;58875;51.996;4.504;2023-10-13T07:44:40;19.15;83.19
71173;DHT22;58875;51.996;4.504;2023-10-13T07:47:11;19.23;82.79
71173;DHT22;58875;51.996;4.504;2023-10-13T07:49:40;19.23;82.46
71173;DHT22;58875;51.996;4.504;2023-10-13T07:52:11;19.32;82.18
71173;DHT22;58875;51.996;4.504;2023-10-13T07:54:47;19.32;82.01
71173;DHT22;58875;51.996;4.504;2023-10-13T07:57:18;19.30;81.87
71173;DHT22;58875;51.996;4.504;2023-10-13T07:59:44;19.37;81.57
71173;DHT22;58875;51.996;4.504;2023-10-13T08:02:17;19.40;81.82
71173;DHT22;58875;51.996;4.504;2023-10-13T08:05:14;19.49;81.64
71173;DHT22;58875;51.996;4.504;2023-10-13T08:07:50;19.46;81.70
71173;DHT22;58875;51.996;4.504;2023-10-13T08:10:15;19.52;81.80
71173;DHT22;58875;51.996;4.504;2023-10-13T08:12:42;19.49;81.51
71173;DHT22;58875;51.996;4.504;2023-10-13T08:15:09;19.50;81.45
71173;DHT22;58875;51.996;4.504;2023-10-13T08:17:47;19.54;81.36
71173;DHT22;58875;51.996;4.504;2023-10-13T08:20:12;19.57;81.34
71173;DHT22;58875;51.996;4.504;2023-10-13T08:22:38;19.60;81.46
71173;DHT22;58875;51.996;4.504;2023-10-13T08:25:05;19.62;81.21
71173;DHT22;58875;51.996;4.504;2023-10-13T08:27:49;19.60;80.82
71173;DHT22;58875;51.996;4.504;2023-10-13T08:30:31;19.54;80.51
71173;DHT22;58875;51.996;4.504;2023-10-13T08:32:59;19.56;80.41
71173;DHT22;58875;51.996;4.504;2023-10-13T08:35:29;19.60;80.04
71173;DHT22;58875;51.996;4.504;2023-10-13T08:37:55;19.64;79.88
71173;DHT22;58875;51.996;4.504;2023-10-13T08:40:24;19.59;79.60
71173;DHT22;58875;51.996;4.504;2023-10-13T08:43:10;19.66;79.55
71173;DHT22;58875;51.996;4.504;2023-10-13T08:45:39;19.64;79.67
71173;DHT22;58875;51.996;4.504;2023-10-13T08:48:06;19.62;79.28
71173;DHT22;58875;51.996;4.504;2023-10-13T08:50:50;19.63;79.13
71173;DHT22;58875;51.996;4.504;2023-10-13T08:53:29;19.67;78.91
71173;DHT22;58875;51.996;4.504;2023-10-13T08:56:03;19.75;78.57
71173;DHT22;58875;51.996;4.504;2023-10-13T08:58:46;19.81;78.95
71173;DHT22;58875;51.996;4.504;2023-10-13T09:01:23;19.85;78.74
71173;DHT22;58875;51.996;4.504;2023-10-13T09:04:11;19.88;78.22
71173;DHT22;58875;51.996;4.504;2023-10-13T09:06:57;19.90;78.50
71173;DHT22;58875;51.996;4.504;2023-10-13T09:09:29;19.88;78.18
71173;DHT22;58875;51.996;4.504;2023-10-13T09:12:21;19.98;78.42
71173;DHT22;58875;51.996;4.504;2023-10-13T09:15:03;20.05;78.02
71173;DHT22;58875;51.996;4.504;2023-10-13T09:17:49;20.01;77.71
71173;DHT22;58875;51.996;4.504;2023-10-13T09:20:31;19.98;78.14
71173;DHT22;58875;51.996;4.504;2023-10-13T09:23:17;19.95;78.09
71173;DHT22;58875;51.996;4.504;2023-10-13T09:25:53;20.00;77.69
71173;DHT22;58875;51.996;4.504;2023-10-13T09:28:20;20.01;77.97
71173;DHT22;58875;51.996;4.504;2023-10-13T09:30:52;20.08;77.65
71173;DHT22;58875;51.996;4.504;2023-10-13T09:33:24;20.04;77.24
71173;DHT22;58875;51.996;4.504;2023-10-13T09:36:05;20.10;77.26
71173;DHT22;58875;51.996;4.504;2023-10-13T09:38:36;20.14;77.05
71173;DHT22;58875;51.996;4.504;2023-10-13T09:41:06;20.21;76.73
71173;DHT22;58875;51.996;4.504;2023-10-13T09:43:44;20.32;76.70
71173;DHT22;58875;51.996;4.504;2023-10-13T09:46:19;20.39;76.24
71173;DHT22;58875;51.996;4.504;2023-10-13T09:48:46;20.41;76.06
71173;DHT22;58875;51.996;4.504;2023-10-13T09:51:18;20.38;76.08
71173;DHT22;58875;51.996;4.504;2023-10-13T09:57:00;20.42;76.12
71173;DHT22;58875;51.996;4.504;2023-10-13T09:59:55;20.45;75.95
71173;DHT22;58875;51.996;4.504;2023-10-13T10:02:22;20.59;76.11
71173;DHT22;58875;51.996;4.504;2023-10-13T10:04:55;20.65;75.41
71173;DHT22;58875;51.996;4.504;2023-10-13T10:07:38;20.75;74.42
71173;DHT22;58875;51.996;4.504;2023-10-13T10:10:05;20.82;75.25
71173;DHT22;58875;51.996;4.504;2023-10-13T10:13:15;20.94;74.47
71173;DHT22;58875;51.996;4.504;2023-10-13T10:15:46;21.08;74.22
71173;DHT22;58875;51.996;4.504;2023-10-13T10:18:21;21.17;73.34
71173;DHT22;58875;51.996;4.504;2023-10-13T10:21:03;21.16;73.26
71173;DHT22;58875;51.996;4.504;2023-10-13T10:23:33;21.14;73.84
71173;DHT22;58875;51.996;4.504;2023-10-13T10:26:12;21.13;73.48
71173;DHT22;58875;51.996;4.504;2023-10-13T10:28:46;21.04;74.13
71173;DHT22;58875;51.996;4.504;2023-10-13T10:31:13;21.14;73.75
71173;DHT22;58875;51.996;4.504;2023-10-13T10:33:41;20.96;73.53
71173;DHT22;58875;51.996;4.504;2023-10-13T10:36:07;20.90;74.05
71173;DHT22;58875;51.996;4.504;2023-10-13T10:38:54;20.90;73.92
71173;DHT22;58875;51.996;4.504;2023-10-13T10:41:28;20.90;73.71
71173;DHT22;58875;51.996;4.504;2023-10-13T10:44:14;20.96;73.66
71173;DHT22;58875;51.996;4.504;2023-10-13T10:47:14;21.02;73.41
71173;DHT22;58875;51.996;4.504;2023-10-13T10:50:03;21.08;73.13
71173;DHT22;58875;51.996;4.504;2023-10-13T10:52:51;21.04;73.14
71173;DHT22;58875;51.996;4.504;2023-10-13T10:55:22;21.02;72.95
71173;DHT22;58875;51.996;4.504;2023-10-13T10:58:00;21.08;72.52
71173;DHT22;58875;51.996;4.504;2023-10-13T11:00:33;21.17;73.19
71173;DHT22;58875;51.996;4.504;2023-10-13T11:03:15;21.30;72.39
71173;DHT22;58875;51.996;4.504;2023-10-13T11:05:46;21.30;71.42
71173;DHT22;58875;51.996;4.504;2023-10-13T11:08:22;21.37;71.23
71173;DHT22;58875;51.996;4.504;2023-10-13T11:10:56;21.38;71.18
71173;DHT22;58875;51.996;4.504;2023-10-13T11:13:22;21.44;71.38
71173;DHT22;58875;51.996;4.504;2023-10-13T11:15:48;21.50;70.52
71173;DHT22;58875;51.996;4.504;2023-10-13T11:18:14;21.61;70.76
71173;DHT22;58875;51.996;4.504;2023-10-13T11:20:47;21.65;70.63
71173;DHT22;58875;51.996;4.504;2023-10-13T11:23:20;21.65;69.88
71173;DHT22;58875;51.996;4.504;2023-10-13T11:25:57;21.59;69.71
71173;DHT22;58875;51.996;4.504;2023-10-13T11:28:24;21.62;69.86
71173;DHT22;58875;51.996;4.504;2023-10-13T11:30:55;21.62;69.48
71173;DHT22;58875;51.996;4.504;2023-10-13T11:33:36;21.54;68.03
71173;DHT22;58875;51.996;4.504;2023-10-13T11:36:02;21.65;69.06
71173;DHT22;58875;51.996;4.504;2023-10-13T11:38:31;21.74;68.43
71173;DHT22;58875;51.996;4.504;2023-10-13T11:41:06;21.73;67.92
71173;DHT22;58875;51.996;4.504;2023-10-13T11:43:36;21.65;67.93
71173;DHT22;58875;51.996;4.504;2023-10-13T11:46:09;21.68;68.04
71173;DHT22;58875;51.996;4.504;2023-10-13T11:48:35;21.71;68.20
71173;DHT22;58875;51.996;4.504;2023-10-13T11:51:08;21.66;67.80
71173;DHT22;58875;51.996;4.504;2023-10-13T11:53:34;21.65;67.23
71173;DHT22;58875;51.996;4.504;2023-10-13T11:56:04;21.75;68.00
71173;DHT22;58875;51.996;4.504;2023-10-13T11:58:36;21.62;67.89
71173;DHT22;58875;51.996;4.504;2023-10-13T12:01:02;21.69;67.70
71173;DHT22;58875;51.996;4.504;2023-10-13T12:03:45;21.71;67.92
71173;DHT22;58875;51.996;4.504;2023-10-13T12:06:31;21.77;67.71
71173;DHT22;58875;51.996;4.504;2023-10-13T12:09:09;21.82;67.49
71173;DHT22;58875;51.996;4.504;2023-10-13T12:14:14;21.75;67.90
71173;DHT22;58875;51.996;4.504;2023-10-13T12:17:05;21.78;67.09
71173;DHT22;58875;51.996;4.504;2023-10-13T12:19:36;21.77;67.31
71173;DHT22;58875;51.996;4.504;2023-10-13T12:22:04;21.82;67.34
71173;DHT22;58875;51.996;4.504;2023-10-13T12:24:34;21.77;66.54
71173;DHT22;58875;51.996;4.504;2023-10-13T12:27:03;21.79;67.28
71173;DHT22;58875;51.996;4.504;2023-10-13T12:29:47;21.71;67.44
71173;DHT22;58875;51.996;4.504;2023-10-13T12:32:14;21.64;67.79
71173;DHT22;58875;51.996;4.504;2023-10-13T12:34:41;21.64;68.02
71173;DHT22;58875;51.996;4.504;2023-10-13T12:37:30;21.61;68.72
71173;DHT22;58875;51.996;4.504;2023-10-13T12:40:02;21.55;69.79
71173;DHT22;58875;51.996;4.504;2023-10-13T12:42:47;21.37;70.30
71173;DHT22;58875;51.996;4.504;2023-10-13T12:45:31;21.31;70.42
71173;DHT22;58875;51.996;4.504;2023-10-13T12:48:15;21.37;70.26
71173;DHT22;58875;51.996;4.504;2023-10-13T12:51:02;21.37;71.02
71173;DHT22;58875;51.996;4.504;2023-10-13T12:53:52;21.35;71.01
71173;DHT22;58875;51.996;4.504;2023-10-13T12:56:19;21.34;70.96
71173;DHT22;58875;51.996;4.504;2023-10-13T12:58:54;21.24;72.20
71173;DHT22;58875;51.996;4.504;2023-10-13T13:01:25;21.20;71.73
71173;DHT22;58875;51.996;4.504;2023-10-13T13:03:53;21.23;72.08
71173;DHT22;58875;51.996;4.504;2023-10-13T13:06:25;21.24;72.38
71173;DHT22;58875;51.996;4.504;2023-10-13T13:08:55;21.24;71.92
71173;DHT22;58875;51.996;4.504;2023-10-13T13:11:21;21.24;71.90
71173;DHT22;58875;51.996;4.504;2023-10-13T13:13:47;21.28;71.15
71173;DHT22;58875;51.996;4.504;2023-10-13T13:16:14;21.33;71.19
71173;DHT22;58875;51.996;4.504;2023-10-13T13:18:39;21.35;71.15
71173;DHT22;58875;51.996;4.504;2023-10-13T13:21:05;21.37;70.76
71173;DHT22;58875;51.996;4.504;2023-10-13T13:23:37;21.44;71.14
71173;DHT22;58875;51.996;4.504;2023-10-13T13:26:05;21.50;70.82
71173;DHT22;58875;51.996;4.504;2023-10-13T13:28:45;21.50;70.57
71173;DHT22;58875;51.996;4.504;2023-10-13T13:31:18;21.51;70.26
71173;DHT22;58875;51.996;4.504;2023-10-13T13:33:44;21.47;70.53
71173;DHT22;58875;51.996;4.504;2023-10-13T13:36:10;21.44;70.61
71173;DHT22;58875;51.996;4.504;2023-10-13T13:38:43;21.37;70.76
71173;DHT22;58875;51.996;4.504;2023-10-13T13:41:14;21.31;70.73
71173;DHT22;58875;51.996;4.504;2023-10-13T13:43:43;21.30;71.56
71173;DHT22;58875;51.996;4.504;2023-10-13T13:46:21;21.22;72.54
71173;DHT22;58875;51.996;4.504;2023-10-13T13:48:54;20.93;74.74
71173;DHT22;58875;51.996;4.504;2023-10-13T13:51:32;20.65;76.69
71173;DHT22;58875;51.996;4.504;2023-10-13T13:53:59;20.26;78.68
71173;DHT22;58875;51.996;4.504;2023-10-13T13:56:25;19.88;80.73
71173;DHT22;58875;51.996;4.504;2023-10-13T13:58:53;19.67;81.95
71173;DHT22;58875;51.996;4.504;2023-10-13T14:01:20;19.47;83.03
71173;DHT22;58875;51.996;4.504;2023-10-13T14:03:52;19.39;84.26
71173;DHT22;58875;51.996;4.504;2023-10-13T14:06:22;19.27;84.80
71173;DHT22;58875;51.996;4.504;2023-10-13T14:08:53;19.19;85.11
71173;DHT22;58875;51.996;4.504;2023-10-13T14:11:23;19.06;85.63
71173;DHT22;58875;51.996;4.504;2023-10-13T14:14:05;18.98;86.07
71173;DHT22;58875;51.996;4.504;2023-10-13T14:16:38;18.91;86.18
71173;DHT22;58875;51.996;4.504;2023-10-13T14:19:16;18.87;86.04
71173;DHT22;58875;51.996;4.504;2023-10-13T14:21:56;18.85;86.27
71173;DHT22;58875;51.996;4.504;2023-10-13T14:24:22;18.79;86.51
71173;DHT22;58875;51.996;4.504;2023-10-13T14:26:57;18.87;86.60
71173;DHT22;58875;51.996;4.504;2023-10-13T14:29:49;18.81;86.72
71173;DHT22;58875;51.996;4.504;2023-10-13T14:32:19;18.79;86.65
71173;DHT22;58875;51.996;4.504;2023-10-13T14:34:46;18.88;86.54
71173;DHT22;58875;51.996;4.504;2023-10-13T14:37:14;18.89;86.37
71173;DHT22;58875;51.996;4.504;2023-10-13T14:39:46;18.95;86.74
71173;DHT22;58875;51.996;4.504;2023-10-13T14:42:12;18.87;86.55
71173;DHT22;58875;51.996;4.504;2023-10-13T14:44:37;18.87;86.78
71173;DHT22;58875;51.996;4.504;2023-10-13T14:47:03;18.91;86.81
71173;DHT22;58875;51.996;4.504;2023-10-13T14:49:31;18.87;86.97
71173;DHT22;58875;51.996;4.504;2023-10-13T14:51:57;18.91;86.95
71173;DHT22;58875;51.996;4.504;2023-10-13T14:54:25;18.88;86.84
71173;DHT22;58875;51.996;4.504;2023-10-13T14:57:01;18.89;87.01
71173;DHT22;58875;51.996;4.504;2023-10-13T14:59:27;18.87;87.01
71173;DHT22;58875;51.996;4.504;2023-10-13T15:01:53;18.88;87.07
71173;DHT22;58875;51.996;4.504;2023-10-13T15:04:18;18.88;87.11
71173;DHT22;58875;51.996;4.504;2023-10-13T15:06:50;19.01;87.07
71173;DHT22;58875;51.996;4.504;2023-10-13T15:09:15;19.02;86.79
71173;DHT22;58875;51.996;4.504;2023-10-13T15:11:49;19.08;86.98
71173;DHT22;58875;51.996;4.504;2023-10-13T15:14:18;19.11;86.76
71173;DHT22;58875;51.996;4.504;2023-10-13T15:16:46;19.06;86.82
71173;DHT22;58875;51.996;4.504;2023-10-13T15:19:11;19.03;86.81
71173;DHT22;58875;51.996;4.504;2023-10-13T15:21:37;19.06;86.86
71173;DHT22;58875;51.996;4.504;2023-10-13T15:24:06;19.09;86.72
71173;DHT22;58875;51.996;4.504;2023-10-13T15:27:01;19.11;86.67
71173;DHT22;58875;51.996;4.504;2023-10-13T15:29:28;18.99;86.98
71173;DHT22;58875;51.996;4.504;2023-10-13T15:32:01;18.91;87.48
71173;DHT22;58875;51.996;4.504;2023-10-13T15:34:30;18.92;87.42
71173;DHT22;58875;51.996;4.504;2023-10-13T15:36:57;18.94;87.62
71173;DHT22;58875;51.996;4.504;2023-10-13T15:39:23;18.91;87.68
71173;DHT22;58875;51.996;4.504;2023-10-13T15:41:52;18.92;87.55
71173;DHT22;58875;51.996;4.504;2023-10-13T15:44:22;18.95;87.40
71173;DHT22;58875;51.996;4.504;2023-10-13T15:46:54;19.01;87.39
71173;DHT22;58875;51.996;4.504;2023-10-13T15:49:19;19.08;87.14
71173;DHT22;58875;51.996;4.504;2023-10-13T15:51:45;19.09;87.09
71173;DHT22;58875;51.996;4.504;2023-10-13T15:54:11;19.06;86.95
71173;DHT22;58875;51.996;4.504;2023-10-13T15:56:46;19.09;86.78
71173;DHT22;58875;51.996;4.504;2023-10-13T15:59:14;19.03;86.55
71173;DHT22;58875;51.996;4.504;2023-10-13T16:01:40;19.05;86.38
71173;DHT22;58875;51.996;4.504;2023-10-13T16:04:07;19.08;86.27
71173;DHT22;58875;51.996;4.504;2023-10-13T16:06:40;19.11;86.08
71173;DHT22;58875;51.996;4.504;2023-10-13T16:09:06;19.15;86.07
71173;DHT22;58875;51.996;4.504;2023-10-13T16:11:42;19.15;86.14
71173;DHT22;58875;51.996;4.504;2023-10-13T16:14:09;19.23;86.20
71173;DHT22;58875;51.996;4.504;2023-10-13T16:16:36;19.30;85.96